Flugplatz Anklam

Für EDCA sind keine METAR/TAF Berichte vorhanden.
Es werden die Flugwettermeldungen vom Flugplatz Heringsdorf in 32 km Entfernung angezeigt.

Prognose für EDAH

vom 28.01. um 00:00 UTC

Zwischen 00:00 UTC und 00:00 UTC

Wind 6 kt aus 210°

Sichtweite 10 km oder mehr

aufgebrochene Bewölkung in 3000 ft


Zwischen 00:00 UTC und 00:00 UTC zeitweise mit einer Wahrscheinlichkeit von 30%

Regen

aufgebrochene Bewölkung in 800 ft


Zwischen 00:00 und 00:00 UTC übergehend zu

Wind 11 kt aus 220°

Sichtweite 10 km oder mehr

aufgebrochene Bewölkung in 1200 ft


Zwischen 00:00 UTC und 00:00 UTC zeitweise mit einer Wahrscheinlichkeit von 40%

Regen

aufgebrochene Bewölkung in 900 ft

TAF EDAH 281400Z 2815/2824 21006KT 9999 BKN030 PROB30 TEMPO 2816/2820 RA BKN008 BECMG 2817/2819 22011KT BKN012 PROB40 TEMPO 2821/2823 RA BKN009
Impressum